createdAt,value
2017-07-20T00:01:14.972Z,0
2017-07-20T00:02:30.418Z,0
2017-07-20T00:03:44.630Z,0
2017-07-20T00:04:59.264Z,0
2017-07-20T00:06:14.756Z,0
2017-07-20T00:07:29.892Z,0
2017-07-20T00:08:45.326Z,0
2017-07-20T00:10:01.019Z,0
2017-07-20T00:11:16.447Z,0
2017-07-20T00:12:31.992Z,0
2017-07-20T00:13:47.495Z,0
2017-07-20T00:15:03.196Z,0
2017-07-20T00:16:17.238Z,0
2017-07-20T00:17:32.704Z,0
2017-07-20T00:18:46.890Z,0
2017-07-20T00:20:02.671Z,0
2017-07-20T00:21:18.166Z,0
2017-07-20T00:22:33.687Z,0
2017-07-20T00:23:49.126Z,0
2017-07-20T00:25:04.831Z,0
2017-07-20T00:26:20.275Z,0
2017-07-20T00:27:36.010Z,0
2017-07-20T00:28:51.419Z,0
2017-07-20T00:30:06.906Z,0
2017-07-20T00:31:22.584Z,0
2017-07-20T00:32:38.016Z,0
2017-07-20T00:33:53.488Z,0
2017-07-20T00:35:09.208Z,0
2017-07-20T00:36:24.703Z,0
2017-07-20T00:37:40.249Z,0
2017-07-20T00:38:55.702Z,0
2017-07-20T00:40:11.572Z,0
2017-07-20T00:41:27.021Z,0
2017-07-20T00:42:42.643Z,0
2017-07-20T00:43:58.145Z,0
2017-07-20T00:45:13.483Z,0
2017-07-20T00:46:28.913Z,0
2017-07-20T00:47:44.353Z,0
2017-07-20T00:48:59.824Z,0
2017-07-20T00:50:15.626Z,0
2017-07-20T00:51:31.081Z,0
2017-07-20T00:52:46.819Z,0
2017-07-20T00:54:02.280Z,0
2017-07-20T00:55:18.089Z,0
2017-07-20T00:56:33.550Z,0
2017-07-20T00:57:47.693Z,0
2017-07-20T00:59:03.357Z,0
2017-07-20T01:00:19.052Z,0
2017-07-20T01:01:34.518Z,0
2017-07-20T01:02:50.024Z,0
2017-07-20T01:04:04.147Z,0
2017-07-20T01:05:19.823Z,0
2017-07-20T01:06:35.482Z,0
2017-07-20T01:07:51.031Z,0
2017-07-20T01:09:05.127Z,0
2017-07-20T01:10:19.576Z,0
2017-07-20T01:11:35.015Z,0
2017-07-20T01:12:49.046Z,0
2017-07-20T01:14:04.865Z,0
2017-07-20T01:15:19.673Z,0
2017-07-20T01:16:35.131Z,0
2017-07-20T01:17:50.804Z,0
2017-07-20T01:19:06.286Z,0
2017-07-20T01:20:21.957Z,0
2017-07-20T01:21:37.609Z,0
2017-07-20T01:22:53.175Z,0
2017-07-20T01:24:08.594Z,0
2017-07-20T01:25:24.333Z,0
2017-07-20T01:26:39.792Z,0
2017-07-20T01:27:55.247Z,0
2017-07-20T01:29:09.413Z,0
2017-07-20T01:30:25.150Z,0
2017-07-20T01:31:40.630Z,0
2017-07-20T01:32:56.074Z,0
2017-07-20T01:34:11.472Z,0
2017-07-20T01:35:27.189Z,0
2017-07-20T01:36:42.631Z,0
2017-07-20T01:37:58.101Z,0
2017-07-20T01:39:13.566Z,0
2017-07-20T01:40:29.499Z,0
2017-07-20T01:41:45.008Z,0
2017-07-20T01:43:00.640Z,0
2017-07-20T01:44:16.783Z,0
2017-07-20T01:45:32.497Z,0
2017-07-20T01:46:47.976Z,0
2017-07-20T01:48:03.490Z,0
2017-07-20T01:49:18.951Z,0
2017-07-20T01:50:34.653Z,0
2017-07-20T01:51:50.132Z,0
2017-07-20T01:53:05.620Z,0
2017-07-20T01:54:21.065Z,0
2017-07-20T01:55:36.776Z,0
2017-07-20T01:56:52.430Z,0
2017-07-20T01:58:07.888Z,0
2017-07-20T01:59:23.320Z,0
2017-07-20T02:00:39.088Z,0
2017-07-20T02:01:54.538Z,0
2017-07-20T02:03:10.197Z,0
2017-07-20T02:04:24.363Z,0
2017-07-20T02:05:40.070Z,0
2017-07-20T02:06:54.233Z,0
2017-07-20T02:08:09.697Z,0
2017-07-20T02:09:25.366Z,0
2017-07-20T02:10:40.714Z,0
2017-07-20T02:11:56.188Z,0
2017-07-20T02:13:11.253Z,0
2017-07-20T02:14:26.680Z,0
2017-07-20T02:15:42.390Z,0
2017-07-20T02:16:56.517Z,0
2017-07-20T02:18:12.135Z,0
2017-07-20T02:19:27.595Z,0
2017-07-20T02:20:43.320Z,0
2017-07-20T02:21:58.814Z,0
2017-07-20T02:23:14.266Z,0
2017-07-20T02:24:29.749Z,0
2017-07-20T02:25:45.480Z,0
2017-07-20T02:27:00.924Z,0
2017-07-20T02:28:16.608Z,0
2017-07-20T02:29:32.027Z,0
2017-07-20T02:30:47.496Z,0
2017-07-20T02:32:02.978Z,0
2017-07-20T02:33:17.008Z,0
2017-07-20T02:34:32.442Z,0
2017-07-20T02:35:46.611Z,0
2017-07-20T02:37:02.311Z,0
2017-07-20T02:38:17.804Z,0
2017-07-20T02:39:33.256Z,0
2017-07-20T02:40:48.710Z,0
2017-07-20T02:42:04.527Z,0
2017-07-20T02:43:19.984Z,0
2017-07-20T02:44:35.575Z,0
2017-07-20T02:45:51.191Z,0
2017-07-20T02:47:05.598Z,0
2017-07-20T02:48:21.082Z,0
2017-07-20T02:49:36.548Z,0
2017-07-20T02:50:51.957Z,0
2017-07-20T02:52:07.640Z,0
2017-07-20T02:53:22.762Z,0
2017-07-20T02:54:38.230Z,0
2017-07-20T02:55:53.819Z,0
2017-07-20T02:57:09.529Z,0
2017-07-20T02:58:25.293Z,0
2017-07-20T02:59:41.145Z,0
2017-07-20T03:00:56.623Z,0
2017-07-20T03:02:12.343Z,0
2017-07-20T03:03:27.835Z,0
2017-07-20T03:04:42.970Z,0
2017-07-20T03:05:58.413Z,0
2017-07-20T03:07:14.116Z,0
2017-07-20T03:08:29.722Z,0
2017-07-20T03:09:45.195Z,0
2017-07-20T03:11:00.641Z,0
2017-07-20T03:12:16.402Z,5
2017-07-20T03:13:31.890Z,5
2017-07-20T03:14:47.370Z,5
2017-07-20T03:16:03.023Z,5
2017-07-20T03:17:18.794Z,5
2017-07-20T03:18:32.951Z,5
2017-07-20T03:19:48.611Z,10
2017-07-20T03:21:04.020Z,10
2017-07-20T03:22:19.731Z,10
2017-07-20T03:23:33.882Z,10
2017-07-20T03:24:47.916Z,15
2017-07-20T03:26:03.360Z,15
2017-07-20T03:27:17.852Z,15
2017-07-20T03:28:33.317Z,20
2017-07-20T03:29:48.746Z,20
2017-07-20T03:31:04.255Z,20
2017-07-20T03:32:19.976Z,25
2017-07-20T03:33:35.477Z,25
2017-07-20T03:34:50.979Z,25
2017-07-20T03:36:06.518Z,30
2017-07-20T03:37:22.305Z,30
2017-07-20T03:38:37.963Z,30
2017-07-20T03:39:53.494Z,35
2017-07-20T03:41:08.953Z,35
2017-07-20T03:42:24.648Z,35
2017-07-20T03:43:40.121Z,40
2017-07-20T03:44:55.528Z,40
2017-07-20T03:46:10.945Z,45
2017-07-20T03:47:26.684Z,45
2017-07-20T03:48:40.890Z,50
2017-07-20T03:49:56.501Z,50
2017-07-20T03:51:11.984Z,55
2017-07-20T03:52:27.718Z,55
2017-07-20T03:53:43.097Z,60
2017-07-20T03:54:58.589Z,60
2017-07-20T03:56:13.702Z,65
2017-07-20T03:57:29.397Z,65
2017-07-20T03:58:44.863Z,65
2017-07-20T04:00:00.398Z,70
2017-07-20T04:01:15.830Z,75
2017-07-20T04:02:30.085Z,80
2017-07-20T04:03:45.764Z,85
2017-07-20T04:05:01.280Z,90
2017-07-20T04:06:16.695Z,95
2017-07-20T04:07:32.420Z,95
2017-07-20T04:08:46.635Z,95
2017-07-20T04:10:02.062Z,95
2017-07-20T04:11:17.519Z,95
2017-07-20T04:12:31.968Z,95
2017-07-20T04:13:47.386Z,100
2017-07-20T04:15:02.859Z,100
2017-07-20T04:16:18.310Z,105
2017-07-20T04:17:34.189Z,105
2017-07-20T04:18:49.625Z,110
2017-07-20T04:20:05.098Z,115
2017-07-20T04:21:20.552Z,120
2017-07-20T04:22:36.219Z,120
2017-07-20T04:23:51.878Z,125
2017-07-20T04:25:07.361Z,125
2017-07-20T04:26:22.851Z,130
2017-07-20T04:27:38.563Z,135
2017-07-20T04:28:54.084Z,140
2017-07-20T04:30:09.532Z,145
2017-07-20T04:31:25.036Z,155
2017-07-20T04:32:40.762Z,155
2017-07-20T04:33:54.748Z,160
2017-07-20T04:35:10.180Z,165
2017-07-20T04:36:25.675Z,165
2017-07-20T04:37:40.072Z,165
2017-07-20T04:38:55.541Z,170
2017-07-20T04:40:10.952Z,165
2017-07-20T04:41:26.468Z,165
2017-07-20T04:42:42.156Z,170
2017-07-20T04:43:57.622Z,170
2017-07-20T04:45:13.452Z,160
2017-07-20T04:46:29.004Z,160
2017-07-20T04:47:44.728Z,160
2017-07-20T04:49:00.196Z,160
2017-07-20T04:50:15.801Z,165
2017-07-20T04:51:29.973Z,175
2017-07-20T04:52:45.688Z,160
2017-07-20T04:54:01.089Z,160
2017-07-20T04:55:16.544Z,160
2017-07-20T04:56:32.027Z,155
2017-07-20T04:57:47.681Z,150
2017-07-20T04:59:03.263Z,160
2017-07-20T05:00:18.756Z,160
2017-07-20T05:01:34.142Z,165
2017-07-20T05:02:49.893Z,165
2017-07-20T05:04:05.355Z,160
2017-07-20T05:05:21.057Z,160
2017-07-20T05:06:36.499Z,150
2017-07-20T05:07:52.400Z,150
2017-07-20T05:09:07.499Z,150
2017-07-20T05:10:23.038Z,155
2017-07-20T05:12:09.398Z,150
2017-07-20T05:13:25.042Z,150
2017-07-20T05:14:40.510Z,135
2017-07-20T05:15:55.959Z,125
2017-07-20T05:17:11.376Z,120
2017-07-20T05:18:27.147Z,115
2017-07-20T05:19:42.628Z,110
2017-07-20T05:20:56.625Z,110
2017-07-20T05:22:09.471Z,115
2017-07-20T05:23:25.392Z,115
2017-07-20T05:24:41.069Z,125
2017-07-20T05:25:56.525Z,110
2017-07-20T05:27:11.988Z,105
2017-07-20T05:28:27.710Z,105
2017-07-20T05:29:43.365Z,110
2017-07-20T05:30:58.860Z,110
2017-07-20T05:32:14.376Z,110
2017-07-20T05:33:30.083Z,115
2017-07-20T05:34:45.535Z,115
2017-07-20T05:36:01.055Z,125
2017-07-20T05:37:16.532Z,130
2017-07-20T05:38:32.231Z,130
2017-07-20T05:39:47.624Z,145
2017-07-20T05:41:03.045Z,155
2017-07-20T05:42:18.525Z,165
2017-07-20T05:43:34.239Z,170
2017-07-20T05:44:49.721Z,185
2017-07-20T05:46:05.213Z,190
2017-07-20T05:47:20.688Z,195
2017-07-20T05:48:36.426Z,195
2017-07-20T05:49:51.900Z,205
2017-07-20T05:51:07.353Z,205
2017-07-20T05:52:22.871Z,205
2017-07-20T05:53:38.603Z,195
2017-07-20T05:54:54.057Z,205
2017-07-20T05:56:09.125Z,200
2017-07-20T05:57:23.304Z,215
2017-07-20T05:58:39.051Z,215
2017-07-20T05:59:54.499Z,215
2017-07-20T06:01:09.978Z,230
2017-07-20T06:02:25.650Z,215
2017-07-20T06:03:39.914Z,230
2017-07-20T06:04:54.038Z,235
2017-07-20T06:06:09.457Z,235
2017-07-20T06:07:23.613Z,230
2017-07-20T06:08:38.990Z,230
2017-07-20T06:09:54.462Z,240
2017-07-20T06:11:09.935Z,250
2017-07-20T06:12:25.380Z,255
2017-07-20T06:13:41.116Z,250
2017-07-20T06:14:56.734Z,250
2017-07-20T06:16:12.802Z,255
2017-07-20T06:17:28.295Z,260
2017-07-20T06:18:44.039Z,260
2017-07-20T06:19:59.531Z,265
2017-07-20T06:21:15.039Z,275
2017-07-20T06:22:30.464Z,280
2017-07-20T06:23:46.136Z,290
2017-07-20T06:25:01.798Z,295
2017-07-20T06:26:17.232Z,300
2017-07-20T06:27:31.255Z,305
2017-07-20T06:28:46.979Z,305
2017-07-20T06:30:02.457Z,310
2017-07-20T06:31:17.933Z,305
2017-07-20T06:32:33.416Z,305
2017-07-20T06:33:49.255Z,305
2017-07-20T06:35:04.892Z,300
2017-07-20T06:36:20.336Z,295
2017-07-20T06:37:35.766Z,290
2017-07-20T06:38:51.645Z,280
2017-07-20T06:40:07.136Z,265
2017-07-20T06:41:22.599Z,260
2017-07-20T06:42:38.072Z,260
2017-07-20T06:43:54.018Z,250
2017-07-20T06:45:09.470Z,235
2017-07-20T06:46:23.570Z,235
2017-07-20T06:47:39.037Z,240
2017-07-20T06:48:54.811Z,255
2017-07-20T06:50:10.352Z,265
2017-07-20T06:51:24.571Z,270
2017-07-20T06:52:40.115Z,275
2017-07-20T06:53:55.834Z,280
2017-07-20T06:55:11.527Z,280
2017-07-20T06:56:27.020Z,285
2017-07-20T06:57:42.553Z,290
2017-07-20T06:58:58.279Z,290
2017-07-20T07:00:13.747Z,295
2017-07-20T07:01:29.214Z,300
2017-07-20T07:02:44.888Z,305
2017-07-20T07:04:00.622Z,310
2017-07-20T07:05:16.075Z,315
2017-07-20T07:06:30.242Z,320
2017-07-20T07:07:45.809Z,325
2017-07-20T07:09:01.515Z,330
2017-07-20T07:10:16.972Z,335
2017-07-20T07:11:32.605Z,340
2017-07-20T07:12:48.110Z,345
2017-07-20T07:14:03.825Z,340
2017-07-20T07:15:19.303Z,340
2017-07-20T07:16:34.806Z,335
2017-07-20T07:17:50.254Z,340
2017-07-20T07:19:06.022Z,325
2017-07-20T07:20:35.047Z,310
2017-07-20T07:21:50.728Z,315
2017-07-20T07:23:06.169Z,305
2017-07-20T07:24:20.616Z,310
2017-07-20T07:25:36.208Z,315
2017-07-20T07:26:51.701Z,320
2017-07-20T07:28:07.199Z,320
2017-07-20T07:29:21.635Z,320
2017-07-20T07:30:37.079Z,320
2017-07-20T07:31:52.538Z,325
2017-07-20T07:33:07.972Z,325
2017-07-20T07:34:23.686Z,325
2017-07-20T07:35:39.352Z,330
2017-07-20T07:36:54.863Z,330
2017-07-20T07:38:10.524Z,335
2017-07-20T07:39:26.220Z,335
2017-07-20T07:40:41.671Z,335
2017-07-20T07:41:57.143Z,340
2017-07-20T07:43:12.617Z,340
2017-07-20T07:44:28.356Z,340
2017-07-20T07:45:43.798Z,345
2017-07-20T07:46:59.450Z,345
2017-07-20T07:48:14.940Z,350
2017-07-20T07:49:27.885Z,350
2017-07-20T07:50:43.366Z,355
2017-07-20T07:51:58.869Z,360
2017-07-20T07:53:14.388Z,360
2017-07-20T07:54:30.310Z,365
2017-07-20T07:55:45.781Z,370
2017-07-20T07:57:01.252Z,370
2017-07-20T07:58:16.756Z,375
2017-07-20T07:59:31.132Z,370
2017-07-20T08:00:46.544Z,375
2017-07-20T08:02:00.872Z,385
2017-07-20T08:03:16.348Z,395
2017-07-20T08:04:32.035Z,400
2017-07-20T08:05:47.551Z,400
2017-07-20T08:07:03.026Z,410
2017-07-20T08:08:18.504Z,415
2017-07-20T08:09:34.456Z,420
2017-07-20T08:10:50.099Z,430
2017-07-20T08:12:05.658Z,440
2017-07-20T08:13:21.151Z,450
2017-07-20T08:14:36.840Z,455
2017-07-20T08:15:51.011Z,460
2017-07-20T08:17:05.196Z,470
2017-07-20T08:18:20.682Z,485
2017-07-20T08:19:35.023Z,495
2017-07-20T08:20:50.519Z,510
2017-07-20T08:22:06.024Z,520
2017-07-20T08:23:20.065Z,545
2017-07-20T08:24:34.753Z,580
2017-07-20T08:25:50.232Z,625
2017-07-20T08:27:05.831Z,675
2017-07-20T08:28:21.339Z,740
2017-07-20T08:29:37.081Z,845
2017-07-20T08:30:52.545Z,955
2017-07-20T08:32:08.016Z,1050
2017-07-20T08:33:23.464Z,975
2017-07-20T08:34:39.222Z,910
2017-07-20T08:35:54.751Z,870
2017-07-20T08:37:09.939Z,830
2017-07-20T08:38:24.070Z,790
2017-07-20T08:39:39.805Z,770
2017-07-20T08:40:54.926Z,785
2017-07-20T08:42:10.369Z,765
2017-07-20T08:43:25.817Z,745
2017-07-20T08:44:41.530Z,705
2017-07-20T08:45:56.976Z,665
2017-07-20T08:47:12.389Z,635
2017-07-20T08:48:27.858Z,615
2017-07-20T08:49:43.780Z,625
2017-07-20T08:50:57.768Z,630
2017-07-20T08:52:11.929Z,640
2017-07-20T08:53:26.124Z,660
2017-07-20T08:54:41.854Z,660
2017-07-20T08:55:57.420Z,660
2017-07-20T08:57:13.069Z,685
2017-07-20T08:58:28.735Z,745
2017-07-20T08:59:44.457Z,865
2017-07-20T09:00:59.948Z,965
2017-07-20T09:02:15.432Z,1070
2017-07-20T09:03:30.883Z,1205
2017-07-20T09:04:45.160Z,1215
2017-07-20T09:06:00.631Z,1305
2017-07-20T09:07:16.207Z,1285
2017-07-20T09:08:31.698Z,1595
2017-07-20T09:09:47.398Z,1865
2017-07-20T09:11:02.893Z,1335
2017-07-20T09:12:17.073Z,800
2017-07-20T09:13:32.586Z,630
2017-07-20T09:14:48.323Z,615
2017-07-20T09:16:03.931Z,580
2017-07-20T09:17:19.584Z,720
2017-07-20T09:18:35.052Z,725
2017-07-20T09:19:50.759Z,795
2017-07-20T09:21:06.282Z,735
2017-07-20T09:22:20.316Z,665
2017-07-20T09:23:35.416Z,660
2017-07-20T09:24:51.105Z,635
2017-07-20T09:26:06.635Z,740
2017-07-20T09:27:22.071Z,845
2017-07-20T09:28:36.174Z,1005
2017-07-20T09:29:49.202Z,1265
2017-07-20T09:31:04.706Z,1400
2017-07-20T09:32:19.837Z,905
2017-07-20T09:33:35.349Z,900
2017-07-20T09:34:51.090Z,1070
2017-07-20T09:36:06.563Z,1315
2017-07-20T09:37:22.075Z,850
2017-07-20T09:38:37.537Z,935
2017-07-20T09:39:53.561Z,1415
2017-07-20T09:41:09.087Z,865
2017-07-20T09:42:24.535Z,825
2017-07-20T09:43:40.020Z,875
2017-07-20T09:44:55.797Z,1755
2017-07-20T09:46:11.333Z,1680
2017-07-20T09:47:26.813Z,835
2017-07-20T09:48:42.324Z,700
2017-07-20T09:49:58.083Z,645
2017-07-20T09:51:13.550Z,635
2017-07-20T09:52:29.027Z,635
2017-07-20T09:53:44.677Z,745
2017-07-20T09:55:00.368Z,1210
2017-07-20T09:56:15.879Z,900
2017-07-20T09:57:30.089Z,700
2017-07-20T09:58:45.595Z,590
2017-07-20T10:00:01.338Z,625
2017-07-20T10:01:16.778Z,710
2017-07-20T10:02:32.289Z,860
2017-07-20T10:03:47.948Z,1045
2017-07-20T10:05:03.748Z,1175
2017-07-20T10:06:19.251Z,2195
2017-07-20T10:07:34.667Z,2050
2017-07-20T10:08:50.163Z,1750
2017-07-20T10:10:05.939Z,1600
2017-07-20T10:11:21.456Z,1510
2017-07-20T10:12:36.525Z,2725
2017-07-20T10:13:52.009Z,2995
2017-07-20T10:15:07.744Z,1640
2017-07-20T10:16:23.192Z,1350
2017-07-20T10:17:38.810Z,1370
2017-07-20T10:18:53.929Z,2590
2017-07-20T10:20:09.615Z,2765
2017-07-20T10:21:25.120Z,3105
2017-07-20T10:22:40.604Z,3120
2017-07-20T10:23:56.088Z,3190
2017-07-20T10:25:11.826Z,2720
2017-07-20T10:26:25.975Z,2115
2017-07-20T10:27:41.440Z,1780
2017-07-20T10:28:57.260Z,1975
2017-07-20T10:30:13.107Z,1730
2017-07-20T10:31:28.610Z,1640
2017-07-20T10:32:44.065Z,1325
2017-07-20T10:33:59.538Z,1235
2017-07-20T10:35:15.259Z,1030
2017-07-20T10:36:30.771Z,990
2017-07-20T10:37:46.253Z,965
2017-07-20T10:39:01.789Z,800
2017-07-20T10:40:17.527Z,775
2017-07-20T10:41:33.018Z,845
2017-07-20T10:42:48.508Z,1040
2017-07-20T10:44:04.025Z,955
2017-07-20T10:45:19.667Z,1085
2017-07-20T10:46:35.368Z,1420
2017-07-20T10:47:50.876Z,1345
2017-07-20T10:49:06.352Z,1230
2017-07-20T10:50:22.094Z,1285
2017-07-20T10:51:37.224Z,1385
2017-07-20T10:52:52.758Z,1330
2017-07-20T10:54:08.240Z,1815
2017-07-20T10:55:22.660Z,2265
2017-07-20T10:56:38.362Z,1310
2017-07-20T10:57:53.800Z,1140
2017-07-20T10:59:09.281Z,1915
2017-07-20T11:00:25.348Z,1480
2017-07-20T11:01:40.911Z,945
2017-07-20T11:02:55.126Z,860
2017-07-20T11:04:10.632Z,1075
2017-07-20T11:05:26.391Z,830
2017-07-20T11:06:40.564Z,660
2017-07-20T11:07:56.246Z,610
2017-07-20T11:09:11.706Z,630
2017-07-20T11:10:27.437Z,615
2017-07-20T11:11:42.898Z,560
2017-07-20T11:12:58.353Z,535
2017-07-20T11:14:13.862Z,520
2017-07-20T11:15:29.638Z,520
2017-07-20T11:16:45.089Z,540
2017-07-20T11:18:00.805Z,545
2017-07-20T11:19:16.344Z,535
2017-07-20T11:20:32.041Z,515
2017-07-20T11:21:47.513Z,490
2017-07-20T11:23:02.654Z,450
2017-07-20T11:24:18.127Z,410
2017-07-20T11:25:34.172Z,355
2017-07-20T11:26:49.657Z,345
2017-07-20T11:28:05.223Z,350
2017-07-20T11:29:20.905Z,380
2017-07-20T11:30:36.623Z,410
2017-07-20T11:31:52.086Z,430
2017-07-20T11:33:06.230Z,425
2017-07-20T11:34:21.721Z,440
2017-07-20T11:35:37.619Z,435
2017-07-20T11:36:53.321Z,435
2017-07-20T11:38:08.771Z,460
2017-07-20T11:39:24.237Z,450
2017-07-20T11:40:40.183Z,445
2017-07-20T11:41:55.632Z,430
2017-07-20T11:43:11.100Z,370
2017-07-20T11:44:26.591Z,310
2017-07-20T11:45:42.333Z,305
2017-07-20T11:46:56.702Z,315
2017-07-20T11:48:12.383Z,350
2017-07-20T11:49:27.833Z,420
2017-07-20T11:50:43.856Z,535
2017-07-20T11:51:59.379Z,695
2017-07-20T11:53:14.871Z,775
2017-07-20T11:54:30.341Z,780
2017-07-20T11:55:46.120Z,820
2017-07-20T11:57:01.619Z,880
2017-07-20T11:58:17.081Z,830
2017-07-20T11:59:31.230Z,735
2017-07-20T12:00:43.946Z,675
2017-07-20T12:01:59.756Z,655
2017-07-20T12:03:15.450Z,705
2017-07-20T12:04:29.446Z,725
2017-07-20T12:05:44.911Z,765
2017-07-20T12:07:00.658Z,775
2017-07-20T12:08:16.117Z,730
2017-07-20T12:09:31.735Z,725
2017-07-20T12:10:47.157Z,765
2017-07-20T12:12:03.075Z,830
2017-07-20T12:13:18.532Z,910
2017-07-20T12:14:32.807Z,1015
2017-07-20T12:15:48.456Z,1170
2017-07-20T12:17:04.172Z,1265
2017-07-20T12:18:19.634Z,1430
2017-07-20T12:19:35.128Z,1860
2017-07-20T12:20:50.716Z,2350
2017-07-20T12:22:06.426Z,2265
2017-07-20T12:23:20.671Z,1685
2017-07-20T12:24:36.130Z,1430
2017-07-20T12:25:50.525Z,1300
2017-07-20T12:27:06.251Z,1260
2017-07-20T12:28:20.479Z,1405
2017-07-20T12:30:03.020Z,1200
2017-07-20T12:31:18.539Z,1050
2017-07-20T12:32:34.395Z,1050
2017-07-20T12:33:49.898Z,1195
2017-07-20T12:35:05.565Z,1995
2017-07-20T12:36:21.090Z,1660
2017-07-20T12:37:36.816Z,3280
2017-07-20T12:38:52.322Z,1640
2017-07-20T12:40:07.790Z,1580
2017-07-20T12:41:23.280Z,1530
2017-07-20T12:42:39.014Z,1335
2017-07-20T12:43:53.180Z,990
2017-07-20T12:45:08.758Z,845
2017-07-20T12:46:24.397Z,915
2017-07-20T12:47:40.142Z,855
2017-07-20T12:48:55.806Z,820
2017-07-20T12:50:11.297Z,965
2017-07-20T12:51:26.824Z,1080
2017-07-20T12:52:41.234Z,960
2017-07-20T12:53:55.454Z,995
2017-07-20T12:55:10.945Z,1080
2017-07-20T12:56:26.435Z,900
2017-07-20T12:57:42.179Z,825
2017-07-20T12:58:57.635Z,765
2017-07-20T13:00:13.095Z,765
2017-07-20T13:01:27.253Z,760
2017-07-20T13:02:43.196Z,745
2017-07-20T13:03:58.704Z,685
2017-07-20T13:05:12.742Z,620
2017-07-20T13:06:28.189Z,570
2017-07-20T13:07:42.205Z,535
2017-07-20T13:08:57.692Z,540
2017-07-20T13:10:13.161Z,525
2017-07-20T13:11:28.617Z,465
2017-07-20T13:12:44.353Z,410
2017-07-20T13:13:59.812Z,370
2017-07-20T13:15:14.192Z,365
2017-07-20T13:16:29.673Z,370
2017-07-20T13:17:45.380Z,360
2017-07-20T13:19:00.875Z,330
2017-07-20T13:20:15.908Z,320
2017-07-20T13:21:31.397Z,310
2017-07-20T13:22:47.102Z,310
2017-07-20T13:24:02.575Z,320
2017-07-20T13:25:18.216Z,320
2017-07-20T13:26:33.708Z,320
2017-07-20T13:27:49.441Z,325
2017-07-20T13:29:04.890Z,325
2017-07-20T13:30:20.383Z,325
2017-07-20T13:31:35.895Z,330
2017-07-20T13:32:51.708Z,325
2017-07-20T13:34:07.349Z,300
2017-07-20T13:35:23.000Z,290
2017-07-20T13:36:38.624Z,265
2017-07-20T13:37:54.356Z,240
2017-07-20T13:39:09.842Z,235
2017-07-20T13:40:25.490Z,235
2017-07-20T13:41:40.947Z,240
2017-07-20T13:42:56.675Z,225
2017-07-20T13:44:10.800Z,205
2017-07-20T13:45:26.285Z,205
2017-07-20T13:46:41.706Z,215
2017-07-20T13:47:57.377Z,215
2017-07-20T13:49:13.105Z,215
2017-07-20T13:50:28.537Z,215
2017-07-20T13:51:44.032Z,210
2017-07-20T13:52:59.764Z,195
2017-07-20T13:54:15.277Z,175
2017-07-20T13:55:30.706Z,170
2017-07-20T13:56:46.192Z,160
2017-07-20T13:58:02.147Z,150
2017-07-20T13:59:16.316Z,150
2017-07-20T14:00:31.758Z,155
2017-07-20T14:01:47.300Z,165
2017-07-20T14:03:03.039Z,190
2017-07-20T14:04:18.584Z,215
2017-07-20T14:05:34.085Z,230
2017-07-20T14:06:49.769Z,230
2017-07-20T14:08:05.489Z,235
2017-07-20T14:09:20.876Z,235
2017-07-20T14:10:36.370Z,240
2017-07-20T14:11:51.817Z,260
2017-07-20T14:13:07.535Z,280
2017-07-20T14:14:22.800Z,280
2017-07-20T14:15:38.322Z,260
2017-07-20T14:16:53.828Z,250
2017-07-20T14:18:09.563Z,265
2017-07-20T14:19:25.043Z,270
2017-07-20T14:20:40.484Z,295
2017-07-20T14:21:55.928Z,315
2017-07-20T14:23:11.828Z,315
2017-07-20T14:24:27.502Z,295
2017-07-20T14:25:42.938Z,310
2017-07-20T14:26:58.446Z,315
2017-07-20T14:28:14.162Z,350
2017-07-20T14:29:29.629Z,405
2017-07-20T14:30:45.090Z,480
2017-07-20T14:32:00.614Z,565
2017-07-20T14:33:15.043Z,625
2017-07-20T14:34:30.520Z,710
2017-07-20T14:35:45.996Z,880
2017-07-20T14:37:01.132Z,905
2017-07-20T14:38:16.502Z,875
2017-07-20T14:39:32.069Z,825
2017-07-20T14:40:46.197Z,805
2017-07-20T14:42:00.333Z,835
2017-07-20T14:43:16.073Z,1840
2017-07-20T14:44:31.592Z,1165
2017-07-20T14:45:46.722Z,870
2017-07-20T14:47:02.413Z,885
2017-07-20T14:48:18.280Z,2460
2017-07-20T14:49:33.793Z,2395
2017-07-20T14:50:49.339Z,2350
2017-07-20T14:52:04.755Z,2280
2017-07-20T14:53:20.541Z,2130
2017-07-20T14:54:36.074Z,1915
2017-07-20T14:55:51.604Z,1385
2017-07-20T14:57:06.730Z,1450
2017-07-20T14:58:21.247Z,1355
2017-07-20T14:59:36.734Z,1105
2017-07-20T15:00:52.299Z,950
2017-07-20T15:02:07.788Z,660
2017-07-20T15:03:23.546Z,685
2017-07-20T15:04:39.097Z,740
2017-07-20T15:05:54.564Z,760
2017-07-20T15:07:10.117Z,1070
2017-07-20T15:08:25.847Z,1280
2017-07-20T15:09:41.270Z,1380
2017-07-20T15:10:56.716Z,1485
2017-07-20T15:12:12.218Z,1745
2017-07-20T15:13:27.886Z,2170
2017-07-20T15:14:42.058Z,2285
2017-07-20T15:15:57.669Z,2015
2017-07-20T15:17:13.172Z,1655
2017-07-20T15:18:28.885Z,1305
2017-07-20T15:19:44.360Z,855
2017-07-20T15:20:59.941Z,635
2017-07-20T15:22:15.045Z,660
2017-07-20T15:23:30.763Z,625
2017-07-20T15:24:46.286Z,600
2017-07-20T15:26:01.418Z,580
2017-07-20T15:27:16.974Z,555
2017-07-20T15:28:33.101Z,440
2017-07-20T15:29:48.753Z,445
2017-07-20T15:31:04.239Z,410
2017-07-20T15:32:19.796Z,410
2017-07-20T15:33:35.537Z,385
2017-07-20T15:34:51.002Z,370
2017-07-20T15:36:06.505Z,345
2017-07-20T15:37:21.933Z,340
2017-07-20T15:38:37.666Z,365
2017-07-20T15:39:53.336Z,385
2017-07-20T15:41:08.911Z,410
2017-07-20T15:42:24.522Z,440
2017-07-20T15:43:40.281Z,495
2017-07-20T15:44:55.756Z,510
2017-07-20T15:46:11.263Z,540
2017-07-20T15:47:26.720Z,565
2017-07-20T15:48:42.490Z,595
2017-07-20T15:49:58.168Z,565
2017-07-20T15:51:27.303Z,465
2017-07-20T15:52:43.053Z,470
2017-07-20T15:53:58.833Z,495
2017-07-20T15:55:14.433Z,480
2017-07-20T15:56:29.941Z,475
2017-07-20T15:57:44.188Z,455
2017-07-20T15:58:58.818Z,400
2017-07-20T16:00:14.471Z,380
2017-07-20T16:01:29.994Z,365
2017-07-20T16:02:45.606Z,355
2017-07-20T16:04:01.359Z,345
2017-07-20T16:05:16.833Z,320
2017-07-20T16:06:32.293Z,300
2017-07-20T16:07:47.772Z,270
2017-07-20T16:09:03.594Z,265
2017-07-20T16:10:19.077Z,275
2017-07-20T16:11:34.722Z,290
2017-07-20T16:12:50.275Z,285
2017-07-20T16:14:06.154Z,285
2017-07-20T16:15:21.630Z,290
2017-07-20T16:16:37.337Z,295
2017-07-20T16:17:51.360Z,310
2017-07-20T16:19:07.263Z,320
2017-07-20T16:20:22.419Z,325
2017-07-20T16:21:36.605Z,320
2017-07-20T16:22:52.114Z,320
2017-07-20T16:24:07.881Z,325
2017-07-20T16:25:23.353Z,320
2017-07-20T16:26:38.999Z,320
2017-07-20T16:27:54.801Z,310
2017-07-20T16:29:10.331Z,305
2017-07-20T16:30:25.865Z,295
2017-07-20T16:31:40.984Z,290
2017-07-20T16:32:55.472Z,285
2017-07-20T16:34:10.935Z,280
2017-07-20T16:35:26.611Z,270
2017-07-20T16:36:42.071Z,270
2017-07-20T16:37:57.781Z,270
2017-07-20T16:39:13.304Z,275
2017-07-20T16:40:27.329Z,280
2017-07-20T16:41:42.894Z,290
2017-07-20T16:42:58.633Z,295
2017-07-20T16:44:14.141Z,305
2017-07-20T16:45:29.687Z,320
2017-07-20T16:46:43.888Z,330
2017-07-20T16:47:59.698Z,345
2017-07-20T16:49:15.239Z,345
2017-07-20T16:50:31.139Z,335
2017-07-20T16:51:46.816Z,330
2017-07-20T16:53:01.223Z,325
2017-07-20T16:54:16.908Z,325
2017-07-20T16:55:31.152Z,320
2017-07-20T16:56:46.651Z,315
2017-07-20T16:58:02.371Z,305
2017-07-20T16:59:17.865Z,305
2017-07-20T17:00:33.341Z,315
2017-07-20T17:01:48.876Z,310
2017-07-20T17:03:04.830Z,305
2017-07-20T17:04:20.478Z,310
2017-07-20T17:05:36.123Z,330
2017-07-20T17:06:51.708Z,330
2017-07-20T17:08:07.443Z,330
2017-07-20T17:09:22.924Z,335
2017-07-20T17:10:38.387Z,330
2017-07-20T17:11:53.916Z,315
2017-07-20T17:13:08.213Z,300
2017-07-20T17:14:23.334Z,290
2017-07-20T17:15:38.858Z,280
2017-07-20T17:16:54.406Z,280
2017-07-20T17:18:09.907Z,280
2017-07-20T17:19:25.334Z,280
2017-07-20T17:20:40.807Z,275
2017-07-20T17:21:54.833Z,275
2017-07-20T17:23:10.612Z,270
2017-07-20T17:24:26.150Z,275
2017-07-20T17:25:41.811Z,280
2017-07-20T17:26:57.229Z,285
2017-07-20T17:28:13.271Z,275
2017-07-20T17:29:29.116Z,270
2017-07-20T17:30:44.698Z,265